Time;durP1;ratioP1;P1;durP2;ratioP2;P2;SDS_P1;SDS_P2;PMS_P1;PMS_P2;Temp;Humidity;BMP_temperature;BMP_pressure;BME280_temperature;BME280_humidity;BME280_pressure;Samples;Min_cycle;Max_cycle;Signal;HPM_P1;HPM_P2
2023/06/20 00:00:04;;;;;;;7.57;6.30;;;;;;;22.15;66.75;95284.53;4979708;28;20645;-82
2023/06/20 00:02:29;;;;;;;7.38;6.70;;;;;;;22.27;66.18;95287.22;4998043;28;20176;-80
2023/06/20 00:04:55;;;;;;;8.20;6.95;;;;;;;22.15;66.78;95297.75;4997120;28;20208;-81
2023/06/20 00:07:20;;;;;;;7.50;6.85;;;;;;;22.25;65.62;95307.78;4993237;28;20230;-82
2023/06/20 00:09:45;;;;;;;7.47;6.88;;;;;;;22.19;65.75;95316.66;4969259;28;20263;-80
2023/06/20 00:12:11;;;;;;;9.00;7.50;;;;;;;22.05;66.88;95323.91;4980148;28;20283;-82
2023/06/20 00:14:37;;;;;;;7.22;6.60;;;;;;;22.17;66.86;95337.19;4996860;28;20235;-80
2023/06/20 00:17:03;;;;;;;7.32;6.63;;;;;;;22.30;67.14;95352.91;4998488;28;20184;-82
2023/06/20 00:19:28;;;;;;;8.95;8.05;;;;;;;22.25;68.05;95373.91;4991913;28;20187;-80
2023/06/20 00:21:53;;;;;;;8.13;7.28;;;;;;;22.13;69.16;95410.09;4987983;28;20199;-80
2023/06/20 00:24:19;;;;;;;8.57;7.88;;;;;;;22.12;70.29;95441.00;4993188;28;20290;-80
2023/06/20 00:26:44;;;;;;;9.13;8.20;;;;;;;21.94;72.53;95475.38;4982595;28;20189;-80
2023/06/20 00:29:09;;;;;;;10.25;8.43;;;;;;;21.64;75.26;95502.47;4990107;28;20181;-79
2023/06/20 00:31:38;;;;;;;9.05;8.15;;;;;;;21.76;75.88;95506.03;4974525;28;20211;-81
2023/06/20 00:34:04;;;;;;;12.85;9.45;;;;;;;21.54;79.26;95496.88;4964440;28;20336;-81
2023/06/20 00:36:30;;;;;;;9.50;8.57;;;;;;;21.24;81.19;95507.28;4976841;28;20232;-81
2023/06/20 00:38:55;;;;;;;9.07;8.18;;;;;;;20.81;84.22;95518.50;4984933;28;20870;-81
2023/06/20 00:41:24;;;;;;;10.35;8.45;;;;;;;20.62;86.36;95509.69;4989297;28;20676;-81
2023/06/20 00:43:50;;;;;;;8.75;7.57;;;;;;;20.38;89.01;95491.91;4992347;28;20207;-80
2023/06/20 00:46:17;;;;;;;8.85;8.00;;;;;;;20.03;90.51;95494.06;4993220;28;20545;-82
2023/06/20 00:48:43;;;;;;;9.10;8.20;;;;;;;20.12;89.55;95492.00;4961996;28;20284;-82
2023/06/20 00:51:08;;;;;;;8.40;7.60;;;;;;;20.01;91.56;95491.63;4972019;28;20302;-81
2023/06/20 00:53:33;;;;;;;8.93;8.07;;;;;;;20.19;91.66;95493.59;4984418;28;20610;-80
2023/06/20 00:55:59;;;;;;;9.25;8.50;;;;;;;20.25;92.41;95484.88;4992747;28;20188;-81
2023/06/20 00:58:24;;;;;;;9.73;8.77;;;;;;;20.11;93.47;95491.19;4984601;28;20183;-80
2023/06/20 01:00:50;;;;;;;9.45;8.15;;;;;;;20.33;92.37;95479.38;4988620;28;20563;-82
2023/06/20 01:03:15;;;;;;;10.35;8.73;;;;;;;20.11;93.24;95475.38;4981498;28;20228;-83
2023/06/20 01:05:51;;;;;;;9.18;8.38;;;;;;;20.29;91.80;95483.41;4994466;28;20199;-82
2023/06/20 01:08:28;;;;;;;9.38;8.43;;;;;;;20.43;91.88;95478.94;4988298;28;20222;-82
2023/06/20 01:11:16;;;;;;;9.68;8.68;;;;;;;20.43;91.59;95484.22;4991509;28;20183;-81
2023/06/20 01:14:20;;;;;;;10.45;9.15;;;;;;;20.40;91.57;95473.22;4990717;28;20208;-81
2023/06/20 01:17:01;;;;;;;9.38;8.20;;;;;;;20.29;92.91;95451.78;5006784;28;20191;-81
2023/06/20 01:19:47;;;;;;;11.73;9.20;;;;;;;20.21;93.41;95454.66;4970111;28;20274;-82
2023/06/20 01:22:28;;;;;;;10.32;9.25;;;;;;;20.21;93.20;95446.75;4984625;28;20180;-83
2023/06/20 01:24:59;;;;;;;10.18;9.18;;;;;;;20.07;94.11;95440.72;4986559;28;20592;-82
2023/06/20 01:27:29;;;;;;;10.38;8.38;;;;;;;19.94;93.90;95437.31;4989666;28;20207;-82
2023/06/20 01:30:10;;;;;;;10.52;9.43;;;;;;;19.84;94.59;95435.13;4995154;28;20242;-83
2023/06/20 01:32:42;;;;;;;9.77;8.77;;;;;;;19.71;96.38;95440.44;4965974;28;20227;-82
2023/06/20 01:35:10;;;;;;;11.27;9.65;;;;;;;19.81;95.45;95432.91;4948205;28;20188;-80
2023/06/20 01:37:38;;;;;;;9.85;8.98;;;;;;;19.72;95.85;95428.91;4986667;28;20282;-83
2023/06/20 01:40:07;;;;;;;10.48;9.38;;;;;;;19.73;96.10;95412.06;4992847;28;20597;-81
2023/06/20 01:42:33;;;;;;;11.15;10.00;;;;;;;19.62;96.60;95399.53;4969753;28;20188;-81
2023/06/20 01:44:59;;;;;;;10.40;9.40;;;;;;;19.38;98.20;95412.31;4986117;28;20222;-82
2023/06/20 01:47:26;;;;;;;11.55;9.50;;;;;;;19.40;98.07;95412.91;4976882;28;20873;-81
2023/06/20 01:49:52;;;;;;;10.27;9.32;;;;;;;19.25;99.35;95409.69;4992926;28;20571;-81
2023/06/20 01:52:18;;;;;;;9.13;8.32;;;;;;;19.22;99.44;95404.84;4992100;28;20195;-85
2023/06/20 01:54:47;;;;;;;10.43;8.82;;;;;;;19.39;98.77;95407.88;4962339;28;20739;-83
2023/06/20 01:57:13;;;;;;;10.50;9.45;;;;;;;19.18;100.00;95404.47;4980419;28;20633;-81
2023/06/20 01:59:40;;;;;;;9.68;8.77;;;;;;;19.35;98.86;95402.22;4959849;28;20685;-81
2023/06/20 02:02:06;;;;;;;11.32;8.43;;;;;;;19.32;98.34;95397.34;4989035;28;20403;-82
2023/06/20 02:04:33;;;;;;;9.02;8.20;;;;;;;19.32;97.87;95388.63;4987762;28;20681;-82
2023/06/20 02:07:00;;;;;;;9.35;8.45;;;;;;;19.31;97.60;95379.94;4960370;28;20661;-80
2023/06/20 02:09:26;;;;;;;8.88;7.97;;;;;;;19.19;97.53;95386.84;4983991;28;20184;-83
2023/06/20 02:11:53;;;;;;;8.48;7.68;;;;;;;19.11;98.94;95379.16;4964590;28;20588;-81
2023/06/20 02:14:18;;;;;;;11.55;8.45;;;;;;;18.90;100.00;95388.88;4991409;28;20289;-81
2023/06/20 02:16:44;;;;;;;8.70;7.90;;;;;;;18.96;98.75;95382.00;4983953;28;20211;-81
2023/06/20 02:19:10;;;;;;;9.10;8.20;;;;;;;19.02;98.69;95383.00;4992532;28;20191;-81
2023/06/20 02:21:37;;;;;;;8.55;7.75;;;;;;;19.09;98.63;95383.81;4989651;28;20180;-82
2023/06/20 02:24:05;;;;;;;9.15;8.32;;;;;;;19.03;98.87;95388.06;4994898;28;20208;-81
2023/06/20 02:26:34;;;;;;;9.43;7.93;;;;;;;18.90;99.86;95383.59;4999435;28;20187;-82
2023/06/20 02:29:02;;;;;;;9.13;8.23;;;;;;;18.93;99.17;95382.41;5014228;28;20164;-85
2023/06/20 02:31:31;;;;;;;8.73;7.82;;;;;;;18.90;99.59;95375.72;4997775;28;20195;-85
2023/06/20 02:33:58;;;;;;;8.60;7.70;;;;;;;18.75;100.00;95369.06;5001178;28;20192;-83
2023/06/20 02:36:25;;;;;;;8.13;7.43;;;;;;;18.89;98.35;95382.00;5017469;28;20195;-84
2023/06/20 02:38:55;;;;;;;8.55;7.75;;;;;;;18.78;99.94;95385.22;5017347;28;20168;-85
2023/06/20 02:41:21;;;;;;;8.55;7.68;;;;;;;18.80;100.00;95393.72;5017171;28;20180;-84
2023/06/20 02:43:47;;;;;;;8.93;8.10;;;;;;;18.67;100.00;95391.09;4990595;28;20199;-87
2023/06/20 02:46:16;;;;;;;10.07;7.65;;;;;;;18.68;100.00;95390.91;4997709;28;20245;-83
2023/06/20 02:48:50;;;;;;;8.02;7.20;;;;;;;18.54;100.00;95397.13;5005042;28;20192;-80
2023/06/20 02:51:34;;;;;;;8.43;7.63;;;;;;;18.59;100.00;95399.16;4996038;28;20206;-81
2023/06/20 02:54:17;;;;;;;8.45;7.57;;;;;;;18.51;100.00;95399.34;4970472;28;20208;-80
2023/06/20 02:56:47;;;;;;;8.55;7.60;;;;;;;18.49;100.00;95401.38;4991925;28;20185;-80
2023/06/20 02:59:13;;;;;;;8.60;7.80;;;;;;;18.43;100.00;95402.97;4995700;28;20183;-81
2023/06/20 03:01:40;;;;;;;7.57;6.88;;;;;;;18.37;100.00;95401.13;4976087;28;20260;-85
2023/06/20 03:04:06;;;;;;;7.97;7.18;;;;;;;18.54;100.00;95398.94;5018579;28;20208;-84
2023/06/20 03:06:32;;;;;;;13.10;7.15;;;;;;;18.56;100.00;95391.69;5015691;28;20696;-81
2023/06/20 03:09:02;;;;;;;7.03;6.32;;;;;;;18.54;99.03;95402.38;5005495;28;20203;-81
2023/06/20 03:11:27;;;;;;;7.38;6.68;;;;;;;18.70;98.39;95392.50;4996290;28;20196;-80
2023/06/20 03:13:53;;;;;;;11.32;6.82;;;;;;;18.68;97.66;95387.47;4993996;28;20216;-81
2023/06/20 03:16:18;;;;;;;7.22;6.53;;;;;;;18.67;97.62;95388.47;4995502;28;20180;-81
2023/06/20 03:18:47;;;;;;;6.80;6.10;;;;;;;18.70;97.84;95377.53;4982143;28;20185;-80
2023/06/20 03:21:12;;;;;;;6.63;6.03;;;;;;;18.82;96.05;95373.31;4994966;28;20187;-81
2023/06/20 03:23:38;;;;;;;6.90;6.30;;;;;;;18.76;96.47;95368.03;4993437;28;20204;-82
2023/06/20 03:26:04;;;;;;;7.18;6.57;;;;;;;18.66;97.03;95371.06;4995436;28;20192;-82
2023/06/20 03:28:29;;;;;;;7.55;6.75;;;;;;;18.72;96.40;95367.63;4993477;28;20184;-82
2023/06/20 03:30:55;;;;;;;6.80;6.20;;;;;;;18.72;96.56;95366.81;4983182;28;20733;-81
2023/06/20 03:33:20;;;;;;;6.90;6.25;;;;;;;18.71;96.46;95362.56;4996704;28;20704;-81
2023/06/20 03:35:45;;;;;;;6.60;6.00;;;;;;;18.79;95.44;95370.25;4979016;28;20229;-83
2023/06/20 03:38:12;;;;;;;6.78;6.18;;;;;;;18.77;95.94;95367.84;4985968;28;20261;-84
2023/06/20 03:40:37;;;;;;;8.60;6.85;;;;;;;18.62;97.35;95356.66;4987042;28;20665;-83
2023/06/20 03:43:02;;;;;;;7.78;7.07;;;;;;;18.60;96.55;95367.38;4994810;28;20204;-82
2023/06/20 03:45:28;;;;;;;10.13;7.70;;;;;;;18.66;96.70;95357.94;4995747;28;20222;-83
2023/06/20 03:47:53;;;;;;;8.15;7.07;;;;;;;18.54;97.09;95356.88;4996063;28;20188;-83
2023/06/20 03:50:18;;;;;;;7.75;7.05;;;;;;;18.76;95.66;95347.81;4994836;28;20194;-81
2023/06/20 03:52:44;;;;;;;7.43;6.72;;;;;;;18.67;95.83;95346.41;4994113;28;20219;-83
2023/06/20 03:55:09;;;;;;;7.47;6.78;;;;;;;18.61;96.62;95349.78;4973115;28;20651;-81
2023/06/20 03:57:35;;;;;;;7.50;6.88;;;;;;;18.54;96.77;95348.97;4970341;28;20241;-82
2023/06/20 04:00:01;;;;;;;6.55;5.88;;;;;;;18.76;95.46;95360.16;4974698;28;20234;-82
2023/06/20 04:02:26;;;;;;;7.53;6.72;;;;;;;19.24;91.22;95358.06;4989983;28;20191;-83
2023/06/20 04:04:51;;;;;;;8.07;6.93;;;;;;;20.40;84.53;95365.09;4985685;28;20219;-84
2023/06/20 04:07:20;;;;;;;6.80;6.20;;;;;;;21.57;76.61;95363.56;5008292;28;20203;-83
2023/06/20 04:09:46;;;;;;;6.15;5.55;;;;;;;22.16;73.36;95377.91;5016284;28;20581;-84
2023/06/20 04:12:11;;;;;;;7.72;6.00;;;;;;;22.75;69.95;95371.75;4979280;28;20200;-83
2023/06/20 04:14:37;;;;;;;6.82;6.18;;;;;;;22.62;68.83;95366.69;4997733;28;20217;-83
2023/06/20 04:17:02;;;;;;;6.68;5.57;;;;;;;24.01;63.91;95380.94;4993067;28;20180;-82
2023/06/20 04:19:28;;;;;;;5.82;5.32;;;;;;;24.81;60.84;95380.03;4995954;28;20191;-82
2023/06/20 04:21:53;;;;;;;6.63;6.03;;;;;;;24.86;59.96;95384.63;4971303;28;20404;-82
2023/06/20 04:24:19;;;;;;;6.18;5.65;;;;;;;24.76;60.24;95387.13;4977210;28;20227;-82
2023/06/20 04:26:44;;;;;;;6.13;5.53;;;;;;;25.03;57.88;95388.13;4978114;28;20208;-82
2023/06/20 04:29:09;;;;;;;6.57;5.97;;;;;;;25.08;58.29;95390.84;4991829;28;20186;-82
2023/06/20 04:31:35;;;;;;;8.70;5.90;;;;;;;25.85;54.49;95394.63;4983069;28;20280;-84
2023/06/20 04:34:00;;;;;;;5.93;5.30;;;;;;;25.29;56.77;95396.50;4983729;28;20636;-83
2023/06/20 04:36:26;;;;;;;6.55;6.05;;;;;;;25.97;54.81;95390.00;4983184;28;20280;-82
2023/06/20 04:38:52;;;;;;;7.05;6.45;;;;;;;26.43;53.47;95402.00;4979298;28;20185;-82
2023/06/20 04:41:18;;;;;;;6.00;5.40;;;;;;;25.92;54.55;95400.59;4977047;28;20187;-84
2023/06/20 04:43:44;;;;;;;6.25;5.75;;;;;;;26.90;52.02;95400.59;4992400;28;20705;-83
2023/06/20 04:46:12;;;;;;;7.22;5.75;;;;;;;26.48;52.18;95398.59;4986798;28;20175;-82
2023/06/20 04:48:38;;;;;;;6.25;5.65;;;;;;;28.13;47.38;95400.34;4987974;28;20715;-82
2023/06/20 04:51:07;;;;;;;6.00;5.50;;;;;;;28.69;47.08;95405.88;4987545;28;20215;-84
2023/06/20 04:53:33;;;;;;;6.93;6.32;;;;;;;29.72;43.75;95404.84;4995782;28;20585;-84
2023/06/20 04:55:59;;;;;;;5.95;5.45;;;;;;;29.74;42.48;95400.81;4988383;28;20178;-82
2023/06/20 04:58:28;;;;;;;6.47;5.97;;;;;;;30.26;42.02;95402.25;4980145;28;20722;-82
2023/06/20 05:00:59;;;;;;;6.50;5.90;;;;;;;29.86;42.49;95403.16;4978961;28;20277;-82
2023/06/20 05:03:25;;;;;;;7.57;5.80;;;;;;;30.72;40.80;95400.16;4992392;28;20243;-82
2023/06/20 05:05:50;;;;;;;6.47;5.88;;;;;;;30.16;41.71;95396.94;4992534;28;20246;-84
2023/06/20 05:08:16;;;;;;;6.63;6.13;;;;;;;30.11;41.66;95400.44;4994621;28;20184;-82
2023/06/20 05:10:41;;;;;;;6.47;5.97;;;;;;;29.88;42.92;95403.72;4979088;28;20228;-83
2023/06/20 05:13:07;;;;;;;8.35;6.40;;;;;;;29.65;42.02;95407.78;4991544;28;20704;-85
2023/06/20 05:15:32;;;;;;;6.28;5.78;;;;;;;30.22;41.69;95400.41;4984034;28;20246;-82
2023/06/20 05:17:57;;;;;;;7.03;6.35;;;;;;;31.22;39.51;95403.56;4978594;28;20192;-83
2023/06/20 05:20:23;;;;;;;8.60;6.63;;;;;;;30.78;40.33;95402.81;4986371;28;20183;-83
2023/06/20 05:22:48;;;;;;;6.68;6.18;;;;;;;32.27;37.47;95411.91;4991587;28;20637;-82
2023/06/20 05:25:14;;;;;;;6.80;6.15;;;;;;;32.50;37.20;95415.66;4989204;28;20349;-80
2023/06/20 05:27:39;;;;;;;6.45;5.95;;;;;;;32.18;37.68;95411.75;4976776;28;20683;-82
2023/06/20 05:30:05;;;;;;;7.10;5.78;;;;;;;33.46;35.63;95414.25;4964529;28;20589;-83
2023/06/20 05:32:30;;;;;;;7.00;6.30;;;;;;;31.62;38.34;95415.00;4991956;28;20223;-83
2023/06/20 05:34:56;;;;;;;6.97;6.38;;;;;;;32.42;36.08;95417.09;4991922;28;20204;-82
2023/06/20 05:37:21;;;;;;;7.32;6.63;;;;;;;31.64;38.54;95415.53;4983588;28;20180;-84
2023/06/20 05:39:46;;;;;;;6.93;6.28;;;;;;;31.40;39.73;95420.06;4974727;28;20193;-85
2023/06/20 05:42:12;;;;;;;7.07;6.38;;;;;;;31.71;37.95;95415.19;4981516;28;20268;-85
2023/06/20 05:44:37;;;;;;;7.15;6.45;;;;;;;32.48;36.06;95418.63;4974007;28;20205;-85
2023/06/20 05:47:06;;;;;;;7.38;6.78;;;;;;;32.02;37.76;95415.69;4994378;28;20199;-85
2023/06/20 05:49:35;;;;;;;6.88;6.22;;;;;;;33.22;35.24;95417.06;4986631;28;20218;-84
2023/06/20 05:52:00;;;;;;;7.55;6.68;;;;;;;33.06;35.49;95412.22;4978635;28;20363;-85
2023/06/20 05:54:25;;;;;;;7.57;6.82;;;;;;;32.40;37.28;95414.72;4989000;28;20359;-85
2023/06/20 05:56:52;;;;;;;7.43;6.80;;;;;;;33.07;35.86;95413.81;4987220;28;20211;-84
2023/06/20 05:59:17;;;;;;;6.95;6.35;;;;;;;33.09;35.25;95423.16;4989150;28;20191;-84
2023/06/20 06:01:44;;;;;;;7.60;6.90;;;;;;;32.91;35.75;95415.91;4984079;28;20181;-84
2023/06/20 06:04:10;;;;;;;7.80;7.07;;;;;;;33.05;35.31;95421.38;4992672;28;20215;-84
2023/06/20 06:06:36;;;;;;;7.05;6.45;;;;;;;32.96;36.13;95418.53;4988441;28;20219;-85
2023/06/20 06:09:01;;;;;;;7.80;7.10;;;;;;;34.12;34.25;95422.25;4976674;28;20246;-84
2023/06/20 06:11:27;;;;;;;6.70;6.20;;;;;;;33.37;35.77;95418.72;4966328;28;20224;-79
2023/06/20 06:13:52;;;;;;;7.78;6.97;;;;;;;33.83;34.55;95420.59;4981766;28;20204;-82
2023/06/20 06:16:17;;;;;;;7.38;6.78;;;;;;;33.10;35.69;95426.66;4957033;28;20192;-84
2023/06/20 06:18:43;;;;;;;7.00;6.40;;;;;;;33.08;36.54;95420.78;4988124;28;20680;-83
2023/06/20 06:21:09;;;;;;;7.90;7.20;;;;;;;33.59;34.82;95417.28;4992829;28;20210;-82
2023/06/20 06:23:34;;;;;;;7.82;7.05;;;;;;;32.54;36.72;95420.19;4974334;28;20693;-83
2023/06/20 06:26:00;;;;;;;9.43;7.55;;;;;;;32.62;37.27;95422.22;4991260;28;20184;-83
2023/06/20 06:28:27;;;;;;;8.32;7.45;;;;;;;32.35;37.27;95430.91;4997266;28;20647;-83
2023/06/20 06:30:53;;;;;;;8.05;7.22;;;;;;;33.20;35.85;95434.56;4995519;28;20271;-81
2023/06/20 06:33:19;;;;;;;7.93;7.10;;;;;;;33.16;36.43;95431.69;4992489;28;20298;-83
2023/06/20 06:35:45;;;;;;;7.97;7.22;;;;;;;32.09;38.32;95438.44;4981254;28;20222;-81
2023/06/20 06:38:10;;;;;;;9.02;8.00;;;;;;;33.06;36.70;95433.72;4994695;28;20219;-83
2023/06/20 06:40:36;;;;;;;8.48;7.63;;;;;;;32.72;37.54;95433.94;4990210;28;20184;-80
2023/06/20 06:43:01;;;;;;;8.50;7.70;;;;;;;33.35;36.01;95436.22;4980776;28;20585;-82
2023/06/20 06:45:26;;;;;;;8.63;7.93;;;;;;;32.73;37.23;95440.91;4995189;28;20203;-83
2023/06/20 06:47:52;;;;;;;8.35;7.65;;;;;;;33.23;36.27;95436.69;4995636;28;20188;-82
2023/06/20 06:50:17;;;;;;;8.30;7.60;;;;;;;31.99;38.37;95433.19;4985139;28;20417;-81
2023/06/20 06:52:43;;;;;;;8.77;8.02;;;;;;;33.11;35.97;95433.63;5000095;28;20220;-82
2023/06/20 06:55:08;;;;;;;8.40;7.63;;;;;;;34.37;34.18;95440.59;4996142;28;20207;-83
2023/06/20 06:57:33;;;;;;;8.20;7.38;;;;;;;33.62;35.13;95435.53;4986069;28;20766;-82
2023/06/20 06:59:59;;;;;;;7.95;7.15;;;;;;;32.38;37.38;95435.69;4983825;28;20187;-83
2023/06/20 07:02:26;;;;;;;7.80;7.00;;;;;;;34.40;34.42;95436.53;4963906;28;20185;-81
2023/06/20 07:04:52;;;;;;;8.05;7.35;;;;;;;34.46;34.41;95440.72;4963679;28;20216;-83
2023/06/20 07:07:17;;;;;;;8.30;7.55;;;;;;;33.01;36.79;95425.72;4963580;28;20284;-83
2023/06/20 07:09:43;;;;;;;8.25;7.55;;;;;;;33.32;36.32;95434.94;4989796;28;20199;-83
2023/06/20 07:12:08;;;;;;;9.82;8.15;;;;;;;33.47;35.82;95440.06;4985366;28;20275;-83
2023/06/20 07:14:34;;;;;;;8.05;7.30;;;;;;;33.45;36.19;95436.06;4988915;28;20687;-82
2023/06/20 07:17:00;;;;;;;8.35;7.53;;;;;;;34.40;33.94;95441.91;4965843;28;20193;-82
2023/06/20 07:19:25;;;;;;;9.13;8.25;;;;;;;34.46;34.04;95444.22;4996503;28;20183;-82
2023/06/20 07:21:50;;;;;;;8.98;8.18;;;;;;;32.93;37.63;95441.44;4997797;28;20224;-85
2023/06/20 07:24:16;;;;;;;8.57;7.40;;;;;;;33.69;35.69;95433.25;4995665;28;20665;-81
2023/06/20 07:26:41;;;;;;;8.43;7.72;;;;;;;33.25;36.75;95439.88;4994767;28;20191;-81
2023/06/20 07:29:06;;;;;;;7.75;7.15;;;;;;;33.82;36.16;95451.31;4987647;28;20188;-82
2023/06/20 07:31:32;;;;;;;9.75;8.23;;;;;;;32.59;37.59;95446.19;4995344;28;20208;-81
2023/06/20 07:33:57;;;;;;;8.48;7.68;;;;;;;32.94;36.83;95443.03;4986035;28;20755;-81
2023/06/20 07:36:22;;;;;;;8.50;7.68;;;;;;;32.51;38.24;95444.13;4968708;28;20195;-82
2023/06/20 07:38:48;;;;;;;9.15;7.70;;;;;;;32.68;37.83;95444.44;4989687;28;20195;-82
2023/06/20 07:41:13;;;;;;;9.02;8.10;;;;;;;32.33;38.89;95445.69;4991266;28;20192;-83
2023/06/20 07:43:38;;;;;;;9.05;8.25;;;;;;;32.48;38.75;95447.41;4990826;28;20341;-83
2023/06/20 07:46:04;;;;;;;8.95;8.05;;;;;;;32.09;39.50;95445.69;4983706;28;20563;-82
2023/06/20 07:48:29;;;;;;;8.30;7.65;;;;;;;31.57;39.44;95437.34;4993706;28;20542;-84
2023/06/20 07:50:55;;;;;;;9.00;8.07;;;;;;;32.00;38.69;95439.34;4993081;28;20294;-82
2023/06/20 07:53:21;;;;;;;8.75;7.85;;;;;;;30.90;40.91;95435.41;4966722;28;20213;-81
2023/06/20 07:55:46;;;;;;;8.90;7.93;;;;;;;30.00;42.85;95448.91;4993184;28;20187;-82
2023/06/20 07:58:11;;;;;;;8.43;7.63;;;;;;;30.21;43.35;95438.97;4982854;28;20657;-85
2023/06/20 08:00:37;;;;;;;8.13;7.32;;;;;;;30.81;42.77;95439.75;4981886;28;20179;-82
2023/06/20 08:03:02;;;;;;;8.63;7.85;;;;;;;31.16;40.97;95436.84;4972138;28;20223;-81
2023/06/20 08:05:27;;;;;;;9.55;8.20;;;;;;;32.13;38.83;95436.78;4963746;28;20203;-80
2023/06/20 08:07:53;;;;;;;8.55;7.78;;;;;;;30.71;41.68;95435.28;4984868;28;20185;-81
2023/06/20 08:10:18;;;;;;;8.50;7.70;;;;;;;30.24;43.26;95428.53;4997835;28;20192;-81
2023/06/20 08:12:44;;;;;;;9.10;7.75;;;;;;;30.08;42.82;95432.31;4997072;28;20200;-81
2023/06/20 08:15:09;;;;;;;7.90;7.28;;;;;;;31.29;41.17;95433.56;4982060;28;20223;-81
2023/06/20 08:17:35;;;;;;;8.93;8.13;;;;;;;31.98;38.96;95434.28;4980567;28;20753;-81
2023/06/20 08:20:00;;;;;;;7.70;7.00;;;;;;;31.60;38.64;95440.53;5000335;28;20241;-81
2023/06/20 08:22:26;;;;;;;11.80;7.57;;;;;;;30.78;40.17;95433.09;4989496;28;20199;-81
2023/06/20 08:24:52;;;;;;;9.32;8.27;;;;;;;31.00;40.82;95440.72;4996519;28;20705;-82
2023/06/20 08:27:17;;;;;;;10.20;7.97;;;;;;;31.17;40.11;95446.47;4984412;28;20191;-80
2023/06/20 08:29:42;;;;;;;9.65;8.73;;;;;;;30.77;40.56;95438.72;4996776;28;20187;-80
2023/06/20 08:32:08;;;;;;;9.60;8.70;;;;;;;30.54;41.37;95430.25;4994185;28;20208;-81
2023/06/20 08:34:33;;;;;;;10.70;7.97;;;;;;;30.04;42.92;95432.06;4999993;28;20215;-81
2023/06/20 08:36:58;;;;;;;8.65;7.88;;;;;;;30.57;41.79;95434.25;4984966;28;20238;-80
2023/06/20 08:39:24;;;;;;;9.00;8.23;;;;;;;30.46;41.70;95434.28;4994329;28;20192;-81
2023/06/20 08:41:50;;;;;;;11.02;8.13;;;;;;;30.57;41.83;95436.91;4978458;28;20251;-82
2023/06/20 08:44:15;;;;;;;8.43;7.57;;;;;;;30.51;42.26;95430.00;4975421;28;20222;-82
2023/06/20 08:46:41;;;;;;;8.43;7.72;;;;;;;30.32;42.51;95425.28;4995575;28;20191;-80
2023/06/20 08:49:07;;;;;;;9.55;8.15;;;;;;;30.31;42.38;95425.56;4973358;28;20187;-80
2023/06/20 08:51:35;;;;;;;9.63;7.65;;;;;;;30.42;42.39;95421.75;4970499;28;20216;-81
2023/06/20 08:54:01;;;;;;;9.30;8.02;;;;;;;30.39;42.40;95414.22;4993429;28;20196;-81
2023/06/20 08:56:27;;;;;;;9.05;8.15;;;;;;;29.81;43.23;95424.63;4997469;28;20250;-81
2023/06/20 08:58:52;;;;;;;9.40;7.90;;;;;;;30.28;42.77;95420.72;4995151;28;20191;-81
2023/06/20 09:01:17;;;;;;;10.40;8.45;;;;;;;30.43;42.60;95415.31;4987679;28;20184;-81
2023/06/20 09:03:43;;;;;;;11.18;8.43;;;;;;;29.98;43.55;95409.03;4966832;28;20209;-81
2023/06/20 09:06:08;;;;;;;8.80;7.68;;;;;;;30.35;43.05;95405.16;4984708;28;20181;-81
2023/06/20 09:08:38;;;;;;;8.88;8.07;;;;;;;30.17;42.40;95399.34;4968755;28;20447;-81
2023/06/20 09:11:11;;;;;;;8.52;7.72;;;;;;;30.35;42.19;95405.16;4982354;28;20222;-81
2023/06/20 09:13:37;;;;;;;8.55;7.65;;;;;;;29.77;43.47;95410.16;4984915;28;20677;-80
2023/06/20 09:16:10;;;;;;;8.43;7.57;;;;;;;30.47;40.91;95408.31;4988036;28;20198;-80
2023/06/20 09:18:37;;;;;;;9.65;8.57;;;;;;;30.06;43.03;95407.69;4998099;28;20653;-82
2023/06/20 09:21:03;;;;;;;8.52;7.72;;;;;;;29.60;43.42;95410.47;4991437;28;20180;-80
2023/06/20 09:23:29;;;;;;;8.63;7.85;;;;;;;29.40;44.19;95400.56;4984533;28;20690;-80
2023/06/20 09:25:56;;;;;;;8.90;8.18;;;;;;;28.86;44.87;95403.75;4974276;28;20196;-81
2023/06/20 09:28:22;;;;;;;9.15;8.20;;;;;;;29.02;44.75;95399.25;4968968;28;20212;-80
2023/06/20 09:30:48;;;;;;;11.45;7.82;;;;;;;29.69;41.41;95400.03;4961538;28;20624;-80
2023/06/20 09:33:14;;;;;;;8.35;7.75;;;;;;;29.67;42.97;95389.56;4978435;28;20342;-83
2023/06/20 09:35:39;;;;;;;9.85;7.65;;;;;;;29.19;38.48;95389.09;4977958;28;20266;-78
2023/06/20 09:38:05;;;;;;;8.43;7.60;;;;;;;29.84;40.49;95389.25;4963903;28;20685;-78
2023/06/20 09:40:31;;;;;;;9.18;7.68;;;;;;;29.79;40.74;95392.78;4980238;28;20207;-78
2023/06/20 09:42:57;;;;;;;8.02;6.82;;;;;;;30.34;39.49;95388.28;4980103;28;20622;-78
2023/06/20 09:45:23;;;;;;;8.65;7.80;;;;;;;29.83;41.18;95399.16;4977316;28;20262;-78
2023/06/20 09:47:48;;;;;;;7.60;7.00;;;;;;;30.57;39.68;95394.88;4990367;28;20196;-79
2023/06/20 09:50:19;;;;;;;8.30;7.53;;;;;;;31.07;38.53;95400.97;4965570;28;20190;-78
2023/06/20 09:53:22;;;;;;;8.43;7.45;;;;;;;30.85;38.58;95384.53;4973799;28;20441;-78
2023/06/20 09:55:48;;;;;;;7.93;7.13;;;;;;;30.67;40.15;95386.78;4978586;28;20195;-78
2023/06/20 09:58:17;;;;;;;8.55;7.65;;;;;;;30.71;37.96;95382.47;4970269;28;20338;-78
2023/06/20 10:00:42;;;;;;;8.60;7.72;;;;;;;30.95;38.08;95387.13;4987979;28;20191;-78
2023/06/20 10:03:09;;;;;;;10.00;7.70;;;;;;;30.69;39.13;95389.19;4987422;28;20218;-78
2023/06/20 10:05:34;;;;;;;9.25;7.70;;;;;;;30.62;37.61;95384.09;4947507;28;20863;-78
2023/06/20 10:08:00;;;;;;;7.80;7.07;;;;;;;30.88;37.17;95379.41;4990135;28;20196;-78
2023/06/20 10:10:26;;;;;;;8.00;7.30;;;;;;;31.13;36.13;95377.59;4976113;28;20764;-78
2023/06/20 10:12:51;;;;;;;9.20;7.80;;;;;;;31.01;36.85;95367.25;4961500;28;20215;-78
2023/06/20 10:15:17;;;;;;;7.70;6.93;;;;;;;31.57;35.46;95386.34;4966318;28;20592;-79
2023/06/20 10:17:47;;;;;;;7.97;7.18;;;;;;;30.94;37.55;95380.97;4987518;28;20196;-83
2023/06/20 10:20:33;;;;;;;7.70;6.93;;;;;;;30.92;37.35;95385.00;4962621;28;20198;-80
2023/06/20 10:23:03;;;;;;;8.20;7.35;;;;;;;31.02;35.98;95384.94;4962091;28;20215;-81
2023/06/20 10:25:29;;;;;;;7.97;7.28;;;;;;;30.93;35.58;95383.94;4973720;28;20194;-80
2023/06/20 10:27:58;;;;;;;8.65;7.75;;;;;;;30.17;37.69;95391.31;4982454;28;20177;-82
2023/06/20 10:30:45;;;;;;;8.75;7.78;;;;;;;31.21;36.86;95391.25;4965822;28;20238;-80
2023/06/20 10:33:11;;;;;;;9.35;7.28;;;;;;;31.36;37.30;95395.66;4980527;28;20217;-80
2023/06/20 10:36:00;;;;;;;7.97;7.18;;;;;;;32.00;34.87;95385.66;4974387;28;20181;-83
2023/06/20 10:38:26;;;;;;;8.55;7.68;;;;;;;32.61;33.49;95401.00;4979704;28;20181;-82
2023/06/20 10:41:25;;;;;;;8.57;7.72;;;;;;;31.79;34.30;95391.22;4993222;28;20258;-84
2023/06/20 10:43:51;;;;;;;7.88;7.15;;;;;;;30.86;35.20;95383.44;4987226;28;20214;-85
2023/06/20 10:46:19;;;;;;;8.98;8.05;;;;;;;30.15;36.83;95380.09;4987998;28;20692;-84
2023/06/20 10:48:45;;;;;;;8.63;7.07;;;;;;;31.36;36.98;95389.50;4968309;28;20196;-83
2023/06/20 10:51:11;;;;;;;8.40;7.60;;;;;;;31.01;37.42;95386.03;4969814;28;20172;-84
2023/06/20 10:53:36;;;;;;;8.40;7.60;;;;;;;31.40;36.15;95385.16;4992987;28;20224;-82
2023/06/20 10:56:01;;;;;;;8.07;7.28;;;;;;;30.88;36.31;95379.41;4980461;28;20652;-84
2023/06/20 10:58:27;;;;;;;7.78;7.03;;;;;;;30.84;36.70;95383.72;5000804;28;20195;-84
2023/06/20 11:00:53;;;;;;;8.75;7.22;;;;;;;31.13;37.22;95377.59;4973071;28;20553;-84
2023/06/20 11:03:20;;;;;;;9.10;7.22;;;;;;;31.64;36.73;95379.84;4947496;28;20239;-83
2023/06/20 11:05:50;;;;;;;9.02;6.88;;;;;;;31.95;36.51;95383.00;4988381;28;20181;-82
2023/06/20 11:08:25;;;;;;;7.60;6.88;;;;;;;32.43;34.77;95370.34;4985337;28;20188;-82
2023/06/20 11:10:50;;;;;;;8.27;6.95;;;;;;;32.35;34.31;95366.41;4989128;28;20198;-83
2023/06/20 11:13:15;;;;;;;9.65;7.72;;;;;;;30.59;36.13;95365.91;4975638;28;20213;-82
2023/06/20 11:15:40;;;;;;;8.57;7.70;;;;;;;31.85;35.40;95365.13;4974352;28;20243;-83
2023/06/20 11:18:07;;;;;;;7.32;6.63;;;;;;;32.39;33.68;95359.38;4983332;28;20266;-83
2023/06/20 11:20:35;;;;;;;8.23;7.15;;;;;;;32.07;33.14;95370.78;4999221;28;20262;-83
2023/06/20 11:23:02;;;;;;;7.70;6.90;;;;;;;32.20;33.98;95357.72;4979946;28;20201;-84
2023/06/20 11:25:32;;;;;;;7.75;6.95;;;;;;;31.43;35.25;95361.25;4994286;28;20230;-82
2023/06/20 11:28:08;;;;;;;8.60;7.70;;;;;;;31.23;35.18;95345.34;4992873;28;20270;-84
2023/06/20 11:30:35;;;;;;;8.60;7.20;;;;;;;30.70;35.72;95354.06;4992623;28;20211;-83